Nearby METAR Reports

 

KSNA - John Wayne Airport, California, USA
Distance from station: NE 2mi, 3km
Updated: Sat, 19-Sep-2020 2:53pm PDT
Partly cloudy
Partly cloudy
 Wind from W
Wind: W 6 mph , 9 km/h
Temperature: 81°F , 27°C
Heat Index: 81°F , 27°C
Dew Point: 59°F , 15°C
Humidity: 48%
Barometer: 29.83 inHg , 1010.2 hPa
Clouds: Partly cloudy
Visibility: 10 miles , 16 km
Cloud details: Few Clouds 7000 ft
Partly cloudy 12000 ft
2020/09/19 21:53 KSNA 192153Z 26005KT 10SM FEW070 SCT120 27/15 A2983 RMK AO2 SLP098 FU FEW070 SCT120 T02720150
KSLI - Los Alamitos Aaf, California, USA
Distance from station: NW 11mi, 18km
Updated: Sat, 19-Sep-2020 1:58pm PDT
NOT Current
Few Clouds
Few Clouds
 Wind from SSW
Wind: SSW 6 mph , 9 km/h
Temperature: 84°F , 29°C
Heat Index: 83°F , 28°C
Dew Point: 57°F , 14°C
Humidity: 40%
Barometer: 29.83 inHg , 1010.2 hPa
Clouds: Few Clouds
Visibility: 10 miles , 16 km
Cloud details: Few Clouds 15000 ft
2020/09/19 20:58 KSLI 192058Z 20005KT 10SM FEW150 29/14 A2983 RMK SLP105 WND DATA ESTMD ALSTG/SLP ESTMD 57017 LAST
 
KFUL - Fullerton Muni, California, USA
Distance from station: NNW 16mi, 26km
Updated: Sat, 19-Sep-2020 2:53pm PDT
Clear
Clear
 Wind from S
Wind: S 8 mph , 13 km/h
Temperature: 88°F , 31°C
Dew Point: 55°F , 13°C
Humidity: 33%
Barometer: 29.81 inHg , 1009.5 hPa
Clouds: Clear
Visibility: 10 miles , 16 km
2020/09/19 21:53 KFUL 192153Z 18007KT 10SM CLR 31/13 A2981 RMK AO2 SLP093 T03060133
KLGB - Long Beach Muni, California, USA
Distance from station: NW 19mi, 30km
Updated: Sat, 19-Sep-2020 2:53pm PDT
Clear
Clear
 Wind from S
Wind: S 8 mph , 13 km/h
Temperature: 84°F , 29°C
Heat Index: 84°F , 29°C
Dew Point: 61°F , 16°C
Humidity: 45%
Barometer: 29.81 inHg , 1009.5 hPa
Clouds: Clear
Visibility: 10 miles , 16 km
2020/09/19 21:53 KLGB 192153Z 19007KT 10SM CLR 29/16 A2981 RMK AO2 SLP095 T02890156
 
KAJO - Corona Muni, California, USA
Distance from station: NE 24mi, 39km
Updated: Sat, 19-Sep-2020 2:56pm PDT
Clear
Clear
 Wind from WNW
Wind: WNW 16 mph , 26 km/h, Gust: 21 mph , 33 km/h
Temperature: 90°F , 32°C
Dew Point: 55°F , 13°C
Humidity: 31%
Barometer: 29.80 inHg , 1009.1 hPa
Clouds: Clear
Visibility: 10 miles , 16 km
2020/09/19 21:56 KAJO 192156Z AUTO 29014G18KT 10SM CLR 32/13 A2980 RMK AO2 SLP083 T03220133
KTOA - Torrance Municip, California, USA
Distance from station: WNW 26mi, 42km
Updated: Sat, 19-Sep-2020 2:47pm PDT
Clear
Clear
 Wind from W
Wind: W 20 mph , 31 km/h
Temperature: 73°F , 23°C
Dew Point: 63°F , 17°C
Humidity: 69%
Barometer: 29.82 inHg , 1009.8 hPa
Clouds: Clear
Visibility: 10 miles , 16 km
2020/09/19 21:47 KTOA 192147Z 28017KT 10SM SKC 23/17 A2982
 
KCNO - Chino, California, USA
Distance from station: NE 28mi, 45km
Updated: Sat, 19-Sep-2020 2:53pm PDT
Smoke, Clear
Smoke, Clear
 Wind from W
Wind: W 15 mph , 24 km/h, Gust: 22 mph , 35 km/h
Temperature: 99°F , 37°C
Dew Point: 46°F , 8°C
Humidity: 17%
Barometer: 29.82 inHg , 1009.8 hPa
Summary: Smoke
Clouds: Clear
Visibility: 10 miles , 16 km
2020/09/19 21:53 KCNO 192153Z 27013G19KT 10SM FU CLR 37/08 A2982 RMK AO2 SLP090 T03720083
KEMT - El Monte, California, USA
Distance from station: NNW 30mi, 48km
Updated: Sat, 19-Sep-2020 1:45pm PDT
NOT Current
Clear
Clear
 Wind from SSW
Wind: SSW 8 mph , 13 km/h
Temperature: 91°F , 33°C
Dew Point: 55°F , 13°C
Humidity: 30%
Barometer: 29.82 inHg , 1009.8 hPa
Clouds: Clear
Visibility: 10 miles , 16 km
2020/09/19 20:45 KEMT 192045Z 21007KT 10SM CLR 33/13 A2982 RMK FU NW-NE QUADS ARFF OTS TFR
 
KHHR - Hawthorne, California, USA
Distance from station: NW 31mi, 50km
Updated: Sat, 19-Sep-2020 2:53pm PDT
Smoke, Clear
Smoke, Clear
 Wind from WSW
Wind: WSW 12 mph , 19 km/h
Temperature: 77°F , 25°C
Dew Point: 61°F , 16°C
Humidity: 57%
Barometer: 29.83 inHg , 1010.2 hPa
Summary: Smoke
Clouds: Clear
Visibility: 10 miles , 16 km
2020/09/19 21:53 KHHR 192153Z 25010KT 10SM FU CLR 25/16 A2983 RMK AO2 SLP100 T02500156
KPOC - La Verne/Bracket, California, USA
Distance from station: NNE 32mi, 52km
Updated: Sat, 19-Sep-2020 2:47pm PDT
Clear
Clear
 Wind from W
Wind: W 12 mph , 19 km/h
Temperature: 91°F , 33°C
Dew Point: 55°F , 13°C
Humidity: 30%
Barometer: 29.85 inHg , 1010.8 hPa
Clouds: Clear
Visibility: 10 miles , 16 km
2020/09/19 21:47 KPOC 192147Z 26010KT 10SM CLR 33/13 A2985
 
KONT - Ontario, California, USA
Distance from station: NNE 33mi, 53km
Updated: Sat, 19-Sep-2020 2:53pm PDT
Few Clouds
Few Clouds
 Wind from WSW
Wind: WSW 13 mph , 20 km/h
Temperature: 97°F , 36°C
Dew Point: 43°F , 6°C
Humidity: 16%
Barometer: 29.82 inHg , 1009.8 hPa
Clouds: Few Clouds
Visibility: 10 miles , 16 km
Cloud details: Few Clouds 9000 ft
2020/09/19 21:53 KONT 192153Z 25011KT 10SM FEW090 36/06 A2982 RMK AO2 SLP077 FU FEW090 FU DSNT NW T03560061
KRAL - Riverside, California, USA
Distance from station: NE 33mi, 53km
Updated: Sat, 19-Sep-2020 2:53pm PDT
Clear
Clear
 Wind from W
Wind: W 15 mph , 24 km/h, Gust: 24 mph , 39 km/h
Temperature: 97°F , 36°C
Dew Point: 46°F , 8°C
Humidity: 18%
Barometer: 29.80 inHg , 1009.1 hPa
Clouds: Clear
Visibility: 10 miles , 16 km
2020/09/19 21:53 KRAL 192153Z 27013G21KT 10SM CLR 36/08 A2980 RMK AO2 SLP075 T03610083
 
KCQT - USC/Los Angeles, California, USA
Distance from station: NW 34mi, 54km
Updated: Sat, 19-Sep-2020 2:52pm PDT
Clear
Clear
 Wind from calm
Wind: Calm
Temperature: 82°F , 28°C
Heat Index: 82°F , 28°C
Dew Point: 59°F , 15°C
Humidity: 45%
Barometer: 29.82 inHg , 1009.8 hPa
Clouds: Clear
Visibility: 8 miles , 13 km
2020/09/19 21:52 KCQT 192152Z AUTO 00000KT 8SM CLR 28/15 A2982 RMK AO2 SLP093 T02780150
KLAX - LAX/Los Angeles, California, USA
Distance from station: NW 34mi, 55km
Updated: Sat, 19-Sep-2020 2:53pm PDT
Clear
Clear
 Wind from W
Wind: W 14 mph , 22 km/h
Temperature: 73°F , 23°C
Dew Point: 61°F , 16°C
Humidity: 65%
Barometer: 29.83 inHg , 1010.2 hPa
Clouds: Clear
Visibility: 10 miles , 16 km
2020/09/19 21:53 KLAX 192153Z 27012KT 10SM CLR 23/16 A2983 RMK AO2 SLP101 T02330156 $
 
KAVX - Avalon, California, USA
Distance from station: WSW 35mi, 56km
Updated: Sat, 19-Sep-2020 2:51pm PDT
Clear
Clear
 Wind from WSW
Wind: WSW 9 mph , 15 km/h
Temperature: 75°F , 24°C
Dew Point: 55°F , 13°C
Humidity: 50%
Barometer: 29.90 inHg , 1012.5 hPa
Clouds: Clear
Visibility: 10 miles , 16 km
2020/09/19 21:51 KAVX 192151Z AUTO 24008KT 10SM CLR 24/13 A2990 RMK AO2 SLP092 T02440133 $